sensor_id;sensor_type;location;lat;lon;timestamp;pressure;altitude;pressure_sealevel;temperature;humidity
31337;BME280;22846;42.654;23.314;2023-12-29T00:01:30;95151.22;;;24.27;54.23
31337;BME280;22846;42.654;23.314;2023-12-29T00:03:56;95167.81;;;24.36;54.40
31337;BME280;22846;42.654;23.314;2023-12-29T00:06:21;95161.72;;;24.29;54.44
31337;BME280;22846;42.654;23.314;2023-12-29T00:08:48;95125.91;;;24.07;54.04
31337;BME280;22846;42.654;23.314;2023-12-29T00:11:18;95167.53;;;24.31;54.29
31337;BME280;22846;42.654;23.314;2023-12-29T00:13:44;95160.78;;;24.19;54.20
31337;BME280;22846;42.654;23.314;2023-12-29T00:16:09;95154.03;;;24.24;53.90
31337;BME280;22846;42.654;23.314;2023-12-29T00:18:37;95155.31;;;24.19;54.02
31337;BME280;22846;42.654;23.314;2023-12-29T00:21:02;95171.53;;;24.26;54.14
31337;BME280;22846;42.654;23.314;2023-12-29T00:23:28;95145.81;;;24.08;54.39
31337;BME280;22846;42.654;23.314;2023-12-29T00:25:53;95173.91;;;24.24;53.93
31337;BME280;22846;42.654;23.314;2023-12-29T00:28:19;95171.63;;;24.23;54.24
31337;BME280;22846;42.654;23.314;2023-12-29T00:30:44;95169.41;;;24.18;54.09
31337;BME280;22846;42.654;23.314;2023-12-29T00:33:09;95173.25;;;24.20;54.20
31337;BME280;22846;42.654;23.314;2023-12-29T00:35:38;95154.09;;;24.04;54.13
31337;BME280;22846;42.654;23.314;2023-12-29T00:38:06;95165.34;;;24.06;53.95
31337;BME280;22846;42.654;23.314;2023-12-29T00:40:32;95152.75;;;24.12;54.36
31337;BME280;22846;42.654;23.314;2023-12-29T00:42:58;95148.47;;;24.11;54.33
31337;BME280;22846;42.654;23.314;2023-12-29T00:45:23;95160.50;;;24.14;54.18
31337;BME280;22846;42.654;23.314;2023-12-29T00:47:49;95148.19;;;24.06;54.66
31337;BME280;22846;42.654;23.314;2023-12-29T00:50:16;95152.47;;;24.07;54.63
31337;BME280;22846;42.654;23.314;2023-12-29T00:52:41;95130.00;;;23.99;54.53
31337;BME280;22846;42.654;23.314;2023-12-29T00:55:07;95153.56;;;24.09;54.51
31337;BME280;22846;42.654;23.314;2023-12-29T00:57:33;95137.44;;;23.99;54.68
31337;BME280;22846;42.654;23.314;2023-12-29T00:59:59;95117.84;;;23.85;54.57
31337;BME280;22846;42.654;23.314;2023-12-29T01:02:25;95151.75;;;24.03;54.31
31337;BME280;22846;42.654;23.314;2023-12-29T01:04:50;95137.97;;;23.91;53.92
31337;BME280;22846;42.654;23.314;2023-12-29T01:07:16;95155.63;;;24.05;54.27
31337;BME280;22846;42.654;23.314;2023-12-29T01:09:41;95139.72;;;24.00;54.27
31337;BME280;22846;42.654;23.314;2023-12-29T01:12:07;95128.97;;;23.93;54.33
31337;BME280;22846;42.654;23.314;2023-12-29T01:14:32;95093.13;;;23.72;53.91
31337;BME280;22846;42.654;23.314;2023-12-29T01:16:58;95142.44;;;24.00;54.11
31337;BME280;22846;42.654;23.314;2023-12-29T01:19:23;95121.75;;;23.84;54.26
31337;BME280;22846;42.654;23.314;2023-12-29T01:21:49;95146.38;;;23.99;54.11
31337;BME280;22846;42.654;23.314;2023-12-29T01:24:15;95151.06;;;23.99;54.47
31337;BME280;22846;42.654;23.314;2023-12-29T01:26:41;95155.75;;;23.98;53.88
31337;BME280;22846;42.654;23.314;2023-12-29T01:29:06;95150.38;;;23.95;53.94
31337;BME280;22846;42.654;23.314;2023-12-29T01:31:32;95138.41;;;23.89;53.73
31337;BME280;22846;42.654;23.314;2023-12-29T01:33:58;95162.06;;;23.95;54.22
31337;BME280;22846;42.654;23.314;2023-12-29T01:36:24;95160.59;;;23.91;54.14
31337;BME280;22846;42.654;23.314;2023-12-29T01:38:49;95161.28;;;23.95;53.95
31337;BME280;22846;42.654;23.314;2023-12-29T01:41:15;95156.41;;;23.87;53.73
31337;BME280;22846;42.654;23.314;2023-12-29T01:46:24;95154.50;;;23.84;54.03
31337;BME280;22846;42.654;23.314;2023-12-29T01:48:50;95159.81;;;23.91;53.81
31337;BME280;22846;42.654;23.314;2023-12-29T01:51:17;95145.63;;;23.80;54.17
31337;BME280;22846;42.654;23.314;2023-12-29T01:53:43;95152.06;;;23.89;53.78
31337;BME280;22846;42.654;23.314;2023-12-29T01:56:09;95153.25;;;23.88;54.02
31337;BME280;22846;42.654;23.314;2023-12-29T01:58:35;95147.78;;;23.88;53.71
31337;BME280;22846;42.654;23.314;2023-12-29T02:01:01;95152.50;;;23.88;53.79
31337;BME280;22846;42.654;23.314;2023-12-29T02:03:27;95133.19;;;23.79;53.84
31337;BME280;22846;42.654;23.314;2023-12-29T02:05:54;95140.09;;;23.83;53.62
31337;BME280;22846;42.654;23.314;2023-12-29T02:08:22;95118.06;;;23.74;53.70
31337;BME280;22846;42.654;23.314;2023-12-29T02:10:48;95114.19;;;23.72;54.03
31337;BME280;22846;42.654;23.314;2023-12-29T02:13:13;95132.66;;;23.84;53.73
31337;BME280;22846;42.654;23.314;2023-12-29T02:15:38;95128.41;;;23.83;54.04
31337;BME280;22846;42.654;23.314;2023-12-29T02:18:06;95128.06;;;23.81;54.10
31337;BME280;22846;42.654;23.314;2023-12-29T02:20:33;95098.66;;;23.69;54.23
31337;BME280;22846;42.654;23.314;2023-12-29T02:22:58;95104.00;;;23.76;53.91
31337;BME280;22846;42.654;23.314;2023-12-29T02:25:25;95104.47;;;23.71;54.23
31337;BME280;22846;42.654;23.314;2023-12-29T02:27:59;95110.25;;;23.73;54.12
31337;BME280;22846;42.654;23.314;2023-12-29T02:30:37;95080.19;;;23.57;54.07
31337;BME280;22846;42.654;23.314;2023-12-29T02:33:10;95107.91;;;23.75;54.08
31337;BME280;22846;42.654;23.314;2023-12-29T02:35:39;95081.66;;;23.61;54.32
31337;BME280;22846;42.654;23.314;2023-12-29T02:38:06;95090.19;;;23.63;54.22
31337;BME280;22846;42.654;23.314;2023-12-29T02:40:32;95069.19;;;23.60;54.21
31337;BME280;22846;42.654;23.314;2023-12-29T02:42:57;95090.81;;;23.71;54.47
31337;BME280;22846;42.654;23.314;2023-12-29T02:45:23;95088.41;;;23.73;54.23
31337;BME280;22846;42.654;23.314;2023-12-29T02:47:49;95056.88;;;23.52;54.22
31337;BME280;22846;42.654;23.314;2023-12-29T02:50:15;95072.19;;;23.66;54.30
31337;BME280;22846;42.654;23.314;2023-12-29T02:52:41;95075.28;;;23.68;54.31
31337;BME280;22846;42.654;23.314;2023-12-29T02:55:07;95078.38;;;23.70;53.82
31337;BME280;22846;42.654;23.314;2023-12-29T02:57:32;95062.13;;;23.63;53.98
31337;BME280;22846;42.654;23.314;2023-12-29T02:59:58;95047.44;;;23.57;53.78
31337;BME280;22846;42.654;23.314;2023-12-29T03:02:23;95069.81;;;23.68;53.92
31337;BME280;22846;42.654;23.314;2023-12-29T03:04:49;95072.56;;;23.68;53.89
31337;BME280;22846;42.654;23.314;2023-12-29T03:07:16;95063.66;;;23.64;53.52
31337;BME280;22846;42.654;23.314;2023-12-29T03:09:42;95034.38;;;23.48;53.61
31337;BME280;22846;42.654;23.314;2023-12-29T03:12:08;95065.19;;;23.65;53.97
31337;BME280;22846;42.654;23.314;2023-12-29T03:14:33;95060.59;;;23.62;53.59
31337;BME280;22846;42.654;23.314;2023-12-29T03:16:58;95027.47;;;23.44;53.44
31337;BME280;22846;42.654;23.314;2023-12-29T03:19:24;95052.56;;;23.55;53.51
31337;BME280;22846;42.654;23.314;2023-12-29T03:21:50;95065.63;;;23.63;54.10
31337;BME280;22846;42.654;23.314;2023-12-29T03:24:16;95052.81;;;23.60;53.85
31337;BME280;22846;42.654;23.314;2023-12-29T03:26:42;95054.34;;;23.61;53.87
31337;BME280;22846;42.654;23.314;2023-12-29T03:29:07;95057.88;;;23.62;53.75
31337;BME280;22846;42.654;23.314;2023-12-29T03:31:33;95041.78;;;23.48;53.56
31337;BME280;22846;42.654;23.314;2023-12-29T03:33:58;95023.41;;;23.32;53.45
31337;BME280;22846;42.654;23.314;2023-12-29T03:36:25;95056.81;;;23.56;53.68
31337;BME280;22846;42.654;23.314;2023-12-29T03:38:50;95057.53;;;23.60;53.75
31337;BME280;22846;42.654;23.314;2023-12-29T03:41:15;95057.59;;;23.56;53.59
31337;BME280;22846;42.654;23.314;2023-12-29T03:43:41;95053.25;;;23.59;53.55
31337;BME280;22846;42.654;23.314;2023-12-29T03:46:20;95041.31;;;23.53;53.86
31337;BME280;22846;42.654;23.314;2023-12-29T03:48:48;95059.88;;;23.58;53.59
31337;BME280;22846;42.654;23.314;2023-12-29T03:51:15;95051.50;;;23.49;53.76
31337;BME280;22846;42.654;23.314;2023-12-29T03:53:41;95049.19;;;23.47;53.59
31337;BME280;22846;42.654;23.314;2023-12-29T03:56:07;95073.19;;;23.56;53.80
31337;BME280;22846;42.654;23.314;2023-12-29T03:58:34;95057.03;;;23.45;53.41
31337;BME280;22846;42.654;23.314;2023-12-29T04:01:00;95072.50;;;23.52;53.67
31337;BME280;22846;42.654;23.314;2023-12-29T04:03:25;95078.63;;;23.56;53.50
31337;BME280;22846;42.654;23.314;2023-12-29T04:05:50;95077.13;;;23.55;53.61
31337;BME280;22846;42.654;23.314;2023-12-29T04:08:16;95046.19;;;23.42;53.63
31337;BME280;22846;42.654;23.314;2023-12-29T04:10:41;95059.34;;;23.47;53.61
31337;BME280;22846;42.654;23.314;2023-12-29T04:13:07;95045.84;;;23.40;53.48
31337;BME280;22846;42.654;23.314;2023-12-29T04:15:32;95062.41;;;23.49;53.38
31337;BME280;22846;42.654;23.314;2023-12-29T04:17:58;95064.84;;;23.43;53.45
31337;BME280;22846;42.654;23.314;2023-12-29T04:20:23;95073.75;;;23.47;53.88
31337;BME280;22846;42.654;23.314;2023-12-29T04:22:49;95072.13;;;23.50;53.47
31337;BME280;22846;42.654;23.314;2023-12-29T04:25:15;95077.59;;;23.50;53.73
31337;BME280;22846;42.654;23.314;2023-12-29T04:27:41;95067.94;;;23.45;53.61
31337;BME280;22846;42.654;23.314;2023-12-29T04:30:06;95066.41;;;23.44;53.22
31337;BME280;22846;42.654;23.314;2023-12-29T04:32:32;95068.31;;;23.47;53.62
31337;BME280;22846;42.654;23.314;2023-12-29T04:34:57;95067.59;;;23.43;53.77
31337;BME280;22846;42.654;23.314;2023-12-29T04:37:23;95076.47;;;23.47;53.77
31337;BME280;22846;42.654;23.314;2023-12-29T04:39:48;95065.28;;;23.42;53.84
31337;BME280;22846;42.654;23.314;2023-12-29T04:42:14;95067.94;;;23.45;54.15
31337;BME280;22846;42.654;23.314;2023-12-29T04:44:40;95058.66;;;23.43;54.09
31337;BME280;22846;42.654;23.314;2023-12-29T04:47:05;95057.59;;;23.37;54.24
31337;BME280;22846;42.654;23.314;2023-12-29T04:49:31;95064.59;;;23.57;54.15
31337;BME280;22846;42.654;23.314;2023-12-29T04:51:56;95064.09;;;23.62;54.12
31337;BME280;22846;42.654;23.314;2023-12-29T04:54:23;95046.03;;;23.49;53.50
31337;BME280;22846;42.654;23.314;2023-12-29T04:56:48;95038.41;;;23.60;53.49
31337;BME280;22846;42.654;23.314;2023-12-29T04:59:14;95059.56;;;23.75;52.95
31337;BME280;22846;42.654;23.314;2023-12-29T05:01:39;95051.75;;;23.74;53.49
31337;BME280;22846;42.654;23.314;2023-12-29T05:04:05;95042.00;;;23.76;53.38
31337;BME280;22846;42.654;23.314;2023-12-29T05:06:30;95052.53;;;23.93;53.22
31337;BME280;22846;42.654;23.314;2023-12-29T05:08:56;95056.38;;;24.12;53.07
31337;BME280;22846;42.654;23.314;2023-12-29T05:11:21;95037.53;;;24.17;52.79
31337;BME280;22846;42.654;23.314;2023-12-29T05:13:46;95046.69;;;24.43;52.43
31337;BME280;22846;42.654;23.314;2023-12-29T05:16:13;95028.59;;;24.49;52.30
31337;BME280;22846;42.654;23.314;2023-12-29T05:18:38;95040.97;;;24.69;51.66
31337;BME280;22846;42.654;23.314;2023-12-29T05:21:04;95034.13;;;24.77;51.57
31337;BME280;22846;42.654;23.314;2023-12-29T05:23:31;95018.59;;;24.74;51.38
31337;BME280;22846;42.654;23.314;2023-12-29T05:25:56;95036.41;;;24.94;51.52
31337;BME280;22846;42.654;23.314;2023-12-29T05:28:22;95048.78;;;24.99;51.15
31337;BME280;22846;42.654;23.314;2023-12-29T05:30:47;95033.59;;;24.98;50.96
31337;BME280;22846;42.654;23.314;2023-12-29T05:33:13;95048.03;;;25.14;50.88
31337;BME280;22846;42.654;23.314;2023-12-29T05:35:38;95052.50;;;25.21;50.87
31337;BME280;22846;42.654;23.314;2023-12-29T05:38:04;95042.13;;;25.16;50.54
31337;BME280;22846;42.654;23.314;2023-12-29T05:40:29;95052.66;;;25.30;50.66
31337;BME280;22846;42.654;23.314;2023-12-29T05:42:54;95057.78;;;25.28;50.28
31337;BME280;22846;42.654;23.314;2023-12-29T05:45:20;95065.00;;;25.22;49.91
31337;BME280;22846;42.654;23.314;2023-12-29T05:47:45;95063.81;;;25.07;49.93
31337;BME280;22846;42.654;23.314;2023-12-29T05:50:11;95055.47;;;24.98;50.17
31337;BME280;22846;42.654;23.314;2023-12-29T05:52:36;95060.69;;;24.92;50.59
31337;BME280;22846;42.654;23.314;2023-12-29T05:55:02;95055.22;;;24.92;50.69
31337;BME280;22846;42.654;23.314;2023-12-29T05:57:28;95058.38;;;24.91;50.62
31337;BME280;22846;42.654;23.314;2023-12-29T05:59:53;95054.09;;;24.90;50.75
31337;BME280;22846;42.654;23.314;2023-12-29T06:02:19;95042.56;;;24.82;50.76
31337;BME280;22846;42.654;23.314;2023-12-29T06:04:44;95050.84;;;24.95;51.65
31337;BME280;22846;42.654;23.314;2023-12-29T06:07:10;95026.75;;;24.90;51.93
31337;BME280;22846;42.654;23.314;2023-12-29T06:09:36;95042.63;;;24.95;50.89
31337;BME280;22846;42.654;23.314;2023-12-29T06:12:01;95013.44;;;24.76;51.51
31337;BME280;22846;42.654;23.314;2023-12-29T06:14:27;95039.16;;;24.94;51.37
31337;BME280;22846;42.654;23.314;2023-12-29T06:16:52;95029.94;;;24.88;51.22
31337;BME280;22846;42.654;23.314;2023-12-29T06:19:18;95045.47;;;24.91;51.09
31337;BME280;22846;42.654;23.314;2023-12-29T06:21:43;95019.34;;;24.75;51.55
31337;BME280;22846;42.654;23.314;2023-12-29T06:24:10;95047.75;;;24.93;51.43
31337;BME280;22846;42.654;23.314;2023-12-29T06:26:36;95030.09;;;24.81;51.31
31337;BME280;22846;42.654;23.314;2023-12-29T06:29:07;95047.44;;;24.91;51.21
31337;BME280;22846;42.654;23.314;2023-12-29T06:31:33;95049.84;;;24.89;51.14
31337;BME280;22846;42.654;23.314;2023-12-29T06:33:59;95039.75;;;24.86;51.09
31337;BME280;22846;42.654;23.314;2023-12-29T06:36:25;95068.28;;;25.01;50.81
31337;BME280;22846;42.654;23.314;2023-12-29T06:38:51;95060.06;;;25.01;50.69
31337;BME280;22846;42.654;23.314;2023-12-29T06:41:18;95058.00;;;25.05;50.57
31337;BME280;22846;42.654;23.314;2023-12-29T06:43:44;95057.16;;;25.08;50.65
31337;BME280;22846;42.654;23.314;2023-12-29T06:46:09;95052.53;;;25.05;50.24
31337;BME280;22846;42.654;23.314;2023-12-29T06:48:36;95047.16;;;25.01;50.35
31337;BME280;22846;42.654;23.314;2023-12-29T06:51:01;95053.97;;;25.09;50.16
31337;BME280;22846;42.654;23.314;2023-12-29T06:53:27;95037.75;;;25.02;50.27
31337;BME280;22846;42.654;23.314;2023-12-29T06:55:52;95060.91;;;25.14;50.28
31337;BME280;22846;42.654;23.314;2023-12-29T06:58:18;95056.97;;;25.15;50.15
31337;BME280;22846;42.654;23.314;2023-12-29T07:00:43;95060.06;;;25.17;50.15
31337;BME280;22846;42.654;23.314;2023-12-29T07:03:09;95065.53;;;25.17;49.90
31337;BME280;22846;42.654;23.314;2023-12-29T07:05:34;95060.38;;;25.19;50.16
31337;BME280;22846;42.654;23.314;2023-12-29T07:08:00;95070.91;;;25.20;50.11
31337;BME280;22846;42.654;23.314;2023-12-29T07:10:25;95065.84;;;25.19;50.23
31337;BME280;22846;42.654;23.314;2023-12-29T07:12:50;95055.00;;;25.15;49.89
31337;BME280;22846;42.654;23.314;2023-12-29T07:15:16;95057.88;;;25.24;50.27
31337;BME280;22846;42.654;23.314;2023-12-29T07:17:41;95048.47;;;25.25;49.79
31337;BME280;22846;42.654;23.314;2023-12-29T07:20:07;95045.34;;;25.27;49.88
31337;BME280;22846;42.654;23.314;2023-12-29T07:22:33;95052.66;;;25.30;50.07
31337;BME280;22846;42.654;23.314;2023-12-29T07:24:58;95051.47;;;25.31;49.84
31337;BME280;22846;42.654;23.314;2023-12-29T07:27:24;95036.44;;;25.23;50.28
31337;BME280;22846;42.654;23.314;2023-12-29T07:29:49;95050.81;;;25.27;49.92
31337;BME280;22846;42.654;23.314;2023-12-29T07:32:15;95034.00;;;25.12;50.11
31337;BME280;22846;42.654;23.314;2023-12-29T07:34:40;95045.09;;;25.21;50.37
31337;BME280;22846;42.654;23.314;2023-12-29T07:37:06;95037.09;;;25.14;50.41
31337;BME280;22846;42.654;23.314;2023-12-29T07:39:31;95028.94;;;25.11;49.97
31337;BME280;22846;42.654;23.314;2023-12-29T07:41:57;95041.56;;;25.21;50.32
31337;BME280;22846;42.654;23.314;2023-12-29T07:44:22;95018.84;;;25.08;50.07
31337;BME280;22846;42.654;23.314;2023-12-29T07:46:48;95033.56;;;25.14;50.31
31337;BME280;22846;42.654;23.314;2023-12-29T07:49:13;95032.91;;;25.10;49.85
31337;BME280;22846;42.654;23.314;2023-12-29T07:51:40;95037.56;;;25.09;50.48
31337;BME280;22846;42.654;23.314;2023-12-29T07:54:06;95039.19;;;25.07;50.60
31337;BME280;22846;42.654;23.314;2023-12-29T07:56:32;95032.72;;;25.01;50.16
31337;BME280;22846;42.654;23.314;2023-12-29T07:58:57;95057.31;;;25.17;50.30
31337;BME280;22846;42.654;23.314;2023-12-29T08:01:23;95040.06;;;25.04;50.35
31337;BME280;22846;42.654;23.314;2023-12-29T08:03:48;95061.69;;;25.14;50.31
31337;BME280;22846;42.654;23.314;2023-12-29T08:06:14;95059.38;;;25.13;50.34
31337;BME280;22846;42.654;23.314;2023-12-29T08:08:41;95053.16;;;25.12;50.51
31337;BME280;22846;42.654;23.314;2023-12-29T08:11:12;95039.72;;;25.02;50.25
31337;BME280;22846;42.654;23.314;2023-12-29T08:13:38;95053.06;;;25.16;49.87
31337;BME280;22846;42.654;23.314;2023-12-29T08:16:05;95044.50;;;25.14;49.60
31337;BME280;22846;42.654;23.314;2023-12-29T08:18:32;95054.91;;;25.19;50.48
31337;BME280;22846;42.654;23.314;2023-12-29T08:20:57;95047.25;;;25.14;50.24
31337;BME280;22846;42.654;23.314;2023-12-29T08:23:25;95049.88;;;25.17;50.37
31337;BME280;22846;42.654;23.314;2023-12-29T08:25:51;95055.78;;;25.16;50.51
31337;BME280;22846;42.654;23.314;2023-12-29T08:28:17;95037.84;;;25.15;50.27
31337;BME280;22846;42.654;23.314;2023-12-29T08:30:42;95044.41;;;25.17;50.48
31337;BME280;22846;42.654;23.314;2023-12-29T08:33:11;95050.41;;;25.12;50.76
31337;BME280;22846;42.654;23.314;2023-12-29T08:35:39;95054.69;;;25.13;50.49
31337;BME280;22846;42.654;23.314;2023-12-29T08:38:05;95045.88;;;25.06;50.77
31337;BME280;22846;42.654;23.314;2023-12-29T08:40:30;95060.56;;;25.12;50.83
31337;BME280;22846;42.654;23.314;2023-12-29T08:42:55;95053.91;;;25.13;50.18
31337;BME280;22846;42.654;23.314;2023-12-29T08:45:21;95054.81;;;25.06;50.50
31337;BME280;22846;42.654;23.314;2023-12-29T08:47:46;95052.88;;;25.07;50.78
31337;BME280;22846;42.654;23.314;2023-12-29T08:50:12;95027.13;;;24.76;50.85
31337;BME280;22846;42.654;23.314;2023-12-29T08:52:37;95059.19;;;25.04;51.04
31337;BME280;22846;42.654;23.314;2023-12-29T08:55:03;95064.91;;;25.09;50.35
31337;BME280;22846;42.654;23.314;2023-12-29T08:57:28;95060.25;;;25.10;50.38
31337;BME280;22846;42.654;23.314;2023-12-29T08:59:54;95019.94;;;24.82;50.05
31337;BME280;22846;42.654;23.314;2023-12-29T09:02:20;95059.53;;;25.06;50.04
31337;BME280;22846;42.654;23.314;2023-12-29T09:04:45;95062.72;;;25.04;49.83
31337;BME280;22846;42.654;23.314;2023-12-29T09:07:11;95063.22;;;24.99;50.05
31337;BME280;22846;42.654;23.314;2023-12-29T09:09:36;95045.47;;;24.91;50.32
31337;BME280;22846;42.654;23.314;2023-12-29T09:12:01;95062.19;;;25.09;50.44
31337;BME280;22846;42.654;23.314;2023-12-29T09:14:27;95066.38;;;25.14;49.90
31337;BME280;22846;42.654;23.314;2023-12-29T09:16:55;95052.97;;;25.03;40.80
31337;BME280;22846;42.654;23.314;2023-12-29T09:19:20;95055.31;;;24.73;30.51
31337;BME280;22846;42.654;23.314;2023-12-29T09:21:46;95051.88;;;24.05;28.16
31337;BME280;22846;42.654;23.314;2023-12-29T09:24:11;95045.50;;;23.38;28.40
31337;BME280;22846;42.654;23.314;2023-12-29T09:26:36;95044.59;;;22.83;28.79
31337;BME280;22846;42.654;23.314;2023-12-29T09:29:02;95044.13;;;22.42;28.49
31337;BME280;22846;42.654;23.314;2023-12-29T09:31:27;95033.16;;;21.96;29.11
31337;BME280;22846;42.654;23.314;2023-12-29T09:33:53;95039.78;;;21.69;29.59
31337;BME280;22846;42.654;23.314;2023-12-29T09:36:18;95029.88;;;21.52;34.70
31337;BME280;22846;42.654;23.314;2023-12-29T09:38:43;95035.13;;;21.69;39.06
31337;BME280;22846;42.654;23.314;2023-12-29T09:41:14;95031.09;;;22.04;40.14
31337;BME280;22846;42.654;23.314;2023-12-29T09:43:40;95027.03;;;22.41;41.46
31337;BME280;22846;42.654;23.314;2023-12-29T09:46:07;95018.19;;;22.80;41.61
31337;BME280;22846;42.654;23.314;2023-12-29T09:48:34;95017.66;;;23.08;42.44
31337;BME280;22846;42.654;23.314;2023-12-29T09:51:01;94979.97;;;23.22;41.76
31337;BME280;22846;42.654;23.314;2023-12-29T09:53:27;95014.53;;;23.64;41.79
31337;BME280;22846;42.654;23.314;2023-12-29T09:55:53;95015.66;;;23.86;41.14
31337;BME280;22846;42.654;23.314;2023-12-29T09:58:21;95002.88;;;23.98;41.12
31337;BME280;22846;42.654;23.314;2023-12-29T10:00:52;95010.41;;;24.10;41.38
31337;BME280;22846;42.654;23.314;2023-12-29T10:03:18;95000.22;;;24.11;40.98
31337;BME280;22846;42.654;23.314;2023-12-29T10:05:49;94998.28;;;24.27;41.29
31337;BME280;22846;42.654;23.314;2023-12-29T10:08:16;94996.66;;;24.30;42.23
31337;BME280;22846;42.654;23.314;2023-12-29T10:10:42;94982.50;;;24.35;42.65
31337;BME280;22846;42.654;23.314;2023-12-29T10:13:09;94970.59;;;24.41;42.94
31337;BME280;22846;42.654;23.314;2023-12-29T10:18:44;94972.69;;;24.53;43.10
31337;BME280;22846;42.654;23.314;2023-12-29T10:21:20;94950.38;;;24.39;42.75
31337;BME280;22846;42.654;23.314;2023-12-29T10:23:57;94974.03;;;24.61;43.14
31337;BME280;22846;42.654;23.314;2023-12-29T10:26:23;94973.94;;;24.65;43.95
31337;BME280;22846;42.654;23.314;2023-12-29T10:28:50;94966.41;;;24.69;43.91
31337;BME280;22846;42.654;23.314;2023-12-29T10:31:16;94955.38;;;24.72;44.01
31337;BME280;22846;42.654;23.314;2023-12-29T10:33:41;94947.09;;;24.76;44.17
31337;BME280;22846;42.654;23.314;2023-12-29T10:36:07;94947.09;;;24.76;44.39
31337;BME280;22846;42.654;23.314;2023-12-29T10:38:34;94943.41;;;24.82;44.48
31337;BME280;22846;42.654;23.314;2023-12-29T10:41:17;94906.53;;;24.74;44.50
31337;BME280;22846;42.654;23.314;2023-12-29T10:43:44;94925.25;;;24.88;44.58
31337;BME280;22846;42.654;23.314;2023-12-29T10:46:12;94921.78;;;24.87;44.21
31337;BME280;22846;42.654;23.314;2023-12-29T10:48:38;94923.31;;;24.88;44.73
31337;BME280;22846;42.654;23.314;2023-12-29T10:51:05;94910.06;;;24.87;44.11
31337;BME280;22846;42.654;23.314;2023-12-29T10:53:32;94916.53;;;24.93;44.21
31337;BME280;22846;42.654;23.314;2023-12-29T10:55:57;94900.66;;;24.88;44.61
31337;BME280;22846;42.654;23.314;2023-12-29T10:58:27;94911.63;;;25.00;44.33
31337;BME280;22846;42.654;23.314;2023-12-29T11:00:55;94901.38;;;25.04;44.54
31337;BME280;22846;42.654;23.314;2023-12-29T11:03:21;94885.81;;;25.01;44.41
31337;BME280;22846;42.654;23.314;2023-12-29T11:05:47;94897.66;;;25.11;44.96
31337;BME280;22846;42.654;23.314;2023-12-29T11:08:20;94885.22;;;25.10;44.66
31337;BME280;22846;42.654;23.314;2023-12-29T11:10:47;94888.06;;;25.19;44.89
31337;BME280;22846;42.654;23.314;2023-12-29T11:13:13;94869.66;;;25.07;44.45
31337;BME280;22846;42.654;23.314;2023-12-29T11:15:45;94765.41;;;24.39;44.49
31337;BME280;22846;42.654;23.314;2023-12-29T11:18:14;94875.28;;;25.16;44.58
31337;BME280;22846;42.654;23.314;2023-12-29T11:20:41;94874.81;;;25.17;45.05
31337;BME280;22846;42.654;23.314;2023-12-29T11:23:09;94870.88;;;25.18;44.84
31337;BME280;22846;42.654;23.314;2023-12-29T11:25:35;94875.81;;;25.23;45.09
31337;BME280;22846;42.654;23.314;2023-12-29T11:28:00;94855.03;;;25.13;45.18
31337;BME280;22846;42.654;23.314;2023-12-29T11:30:27;94876.03;;;25.29;45.10
31337;BME280;22846;42.654;23.314;2023-12-29T11:33:26;94873.63;;;25.31;44.66
31337;BME280;22846;42.654;23.314;2023-12-29T11:36:07;94876.72;;;25.33;45.23
31337;BME280;22846;42.654;23.314;2023-12-29T11:38:59;94872.78;;;25.34;45.13
31337;BME280;22846;42.654;23.314;2023-12-29T11:43:59;94850.78;;;25.25;45.38
31337;BME280;22846;42.654;23.314;2023-12-29T11:46:42;94858.00;;;25.31;45.21
31337;BME280;22846;42.654;23.314;2023-12-29T11:49:08;94863.78;;;25.46;45.62
31337;BME280;22846;42.654;23.314;2023-12-29T11:54:00;94847.47;;;25.42;45.45
31337;BME280;22846;42.654;23.314;2023-12-29T11:56:38;94840.69;;;25.34;45.90
31337;BME280;22846;42.654;23.314;2023-12-29T12:01:52;94855.91;;;25.48;45.80
31337;BME280;22846;42.654;23.314;2023-12-29T12:04:37;94858.97;;;25.50;45.71
31337;BME280;22846;42.654;23.314;2023-12-29T12:09:50;94833.03;;;25.42;46.04
31337;BME280;22846;42.654;23.314;2023-12-29T12:12:39;94844.72;;;25.55;46.06
31337;BME280;22846;42.654;23.314;2023-12-29T12:18:01;94841.47;;;25.60;46.08
31337;BME280;22846;42.654;23.314;2023-12-29T12:20:30;94841.34;;;25.63;46.04
31337;BME280;22846;42.654;23.314;2023-12-29T12:23:00;94833.47;;;25.65;46.11
31337;BME280;22846;42.654;23.314;2023-12-29T12:25:26;94840.34;;;25.69;46.16
31337;BME280;22846;42.654;23.314;2023-12-29T12:27:56;94841.00;;;25.73;46.37
31337;BME280;22846;42.654;23.314;2023-12-29T12:30:21;94837.91;;;25.71;46.97
31337;BME280;22846;42.654;23.314;2023-12-29T12:33:00;94838.25;;;25.73;46.85
31337;BME280;22846;42.654;23.314;2023-12-29T12:35:26;94849.22;;;25.86;46.37
31337;BME280;22846;42.654;23.314;2023-12-29T12:40:34;94842.75;;;25.92;46.66
31337;BME280;22846;42.654;23.314;2023-12-29T12:43:01;94848.56;;;25.94;45.86
31337;BME280;22846;42.654;23.314;2023-12-29T12:45:27;94848.88;;;25.96;46.21
31337;BME280;22846;42.654;23.314;2023-12-29T12:48:00;94851.16;;;25.98;45.93
31337;BME280;22846;42.654;23.314;2023-12-29T12:50:26;94843.78;;;26.07;46.86
31337;BME280;22846;42.654;23.314;2023-12-29T12:52:52;94842.72;;;26.05;46.01
31337;BME280;22846;42.654;23.314;2023-12-29T12:55:18;94834.41;;;25.96;46.36
31337;BME280;22846;42.654;23.314;2023-12-29T12:57:44;94845.31;;;26.08;46.38
31337;BME280;22846;42.654;23.314;2023-12-29T13:00:10;94814.38;;;25.99;46.10
31337;BME280;22846;42.654;23.314;2023-12-29T13:02:36;94843.13;;;26.16;45.86
31337;BME280;22846;42.654;23.314;2023-12-29T13:05:03;94841.47;;;26.18;45.54
31337;BME280;22846;42.654;23.314;2023-12-29T13:07:34;94805.56;;;26.04;45.27
31337;BME280;22846;42.654;23.314;2023-12-29T13:10:01;94845.38;;;26.30;45.08